createdAt,value
2022-10-11T00:00:13.199Z,12.87
2022-10-11T00:02:50.590Z,12.86
2022-10-11T00:05:30.796Z,12.81
2022-10-11T00:08:12.123Z,12.87
2022-10-11T00:10:59.917Z,12.85
2022-10-11T00:13:40.467Z,12.67
2022-10-11T00:16:19.558Z,12.39
2022-10-11T00:18:59.395Z,12.53
2022-10-11T00:21:37.141Z,12.82
2022-10-11T00:24:17.438Z,12.59
2022-10-11T00:26:55.850Z,12.57
2022-10-11T00:29:36.780Z,12.50
2022-10-11T00:32:16.971Z,12.44
2022-10-11T00:34:59.051Z,12.41
2022-10-11T00:37:38.723Z,12.57
2022-10-11T00:40:20.917Z,12.50
2022-10-11T00:42:59.434Z,12.36
2022-10-11T00:45:47.567Z,12.21
2022-10-11T00:48:33.636Z,12.42
2022-10-11T00:51:37.866Z,12.17
2022-10-11T00:54:20.620Z,12.14
2022-10-11T00:57:07.089Z,12.06
2022-10-11T00:59:49.478Z,12.32
2022-10-11T01:02:31.034Z,12.41
2022-10-11T01:05:28.675Z,12.41
2022-10-11T01:08:09.492Z,12.35
2022-10-11T01:10:49.643Z,12.30
2022-10-11T01:14:09.814Z,12.50
2022-10-11T01:16:55.310Z,12.55
2022-10-11T01:19:40.994Z,12.44
2022-10-11T01:22:46.059Z,12.29
2022-10-11T01:25:51.158Z,12.31
2022-10-11T01:28:44.255Z,12.06
2022-10-11T01:31:36.693Z,11.97
2022-10-11T01:34:33.164Z,11.77
2022-10-11T01:37:27.231Z,12.04
2022-10-11T01:40:20.318Z,11.76
2022-10-11T01:43:01.657Z,11.67
2022-10-11T01:45:42.856Z,11.47
2022-10-11T01:48:25.355Z,11.41
2022-10-11T01:51:05.731Z,11.25
2022-10-11T01:53:55.990Z,11.33
2022-10-11T01:57:10.422Z,11.26
2022-10-11T01:59:57.644Z,11.24
2022-10-11T02:03:04.993Z,11.20
2022-10-11T02:06:08.897Z,11.21
2022-10-11T02:08:52.735Z,11.09
2022-10-11T02:11:34.701Z,11.12
2022-10-11T02:14:20.548Z,11.09
2022-10-11T02:17:16.679Z,11.19
2022-10-11T02:19:59.401Z,11.02
2022-10-11T02:22:45.583Z,10.99
2022-10-11T02:25:30.843Z,11.02
2022-10-11T02:28:17.730Z,10.92
2022-10-11T02:31:01.229Z,10.78
2022-10-11T02:33:47.948Z,10.70
2022-10-11T02:36:59.576Z,10.88
2022-10-11T02:39:46.331Z,10.77
2022-10-11T02:42:36.497Z,10.67
2022-10-11T02:45:21.019Z,10.60
2022-10-11T02:48:01.678Z,10.54
2022-10-11T02:50:40.374Z,10.59
2022-10-11T02:53:20.886Z,10.60
2022-10-11T02:55:59.225Z,10.59
2022-10-11T02:58:38.710Z,10.74
2022-10-11T03:01:15.661Z,10.75
2022-10-11T03:03:53.764Z,10.96
2022-10-11T03:06:33.320Z,11.02
2022-10-11T03:09:13.117Z,10.87
2022-10-11T03:11:53.551Z,11.03
2022-10-11T03:14:59.170Z,11.09
2022-10-11T03:17:37.629Z,11.07
2022-10-11T03:20:16.994Z,11.09
2022-10-11T03:22:56.728Z,11.13
2022-10-11T03:25:34.671Z,10.88
2022-10-11T03:28:13.805Z,10.67
2022-10-11T03:30:52.375Z,10.77
2022-10-11T03:33:32.765Z,10.47
2022-10-11T03:36:12.539Z,10.50
2022-10-11T03:38:52.373Z,10.41
2022-10-11T03:41:34.169Z,10.66
2022-10-11T03:44:14.343Z,10.84
2022-10-11T03:46:53.355Z,10.92
2022-10-11T03:49:33.236Z,11.05
2022-10-11T03:52:11.877Z,11.34
2022-10-11T03:54:51.283Z,11.40
2022-10-11T03:57:31.011Z,11.60
2022-10-11T04:00:11.119Z,11.53
2022-10-11T04:02:48.606Z,11.51
2022-10-11T04:05:31.729Z,11.58
2022-10-11T04:08:13.836Z,11.92
2022-10-11T04:10:51.866Z,11.55
2022-10-11T04:13:31.473Z,11.87
2022-10-11T04:16:09.927Z,12.05
2022-10-11T04:18:50.464Z,12.15
2022-10-11T04:21:30.905Z,12.31
2022-10-11T04:24:13.760Z,12.27
2022-10-11T04:26:52.329Z,12.29
2022-10-11T04:29:32.781Z,12.24
2022-10-11T04:32:13.320Z,12.20
2022-10-11T04:34:54.559Z,11.95
2022-10-11T04:37:34.523Z,12.12
2022-10-11T04:40:16.402Z,12.02
2022-10-11T04:42:56.506Z,12.04
2022-10-11T04:45:47.213Z,11.72
2022-10-11T04:48:26.574Z,11.65
2022-10-11T04:51:05.452Z,11.71
2022-10-11T04:53:43.275Z,11.63
2022-10-11T04:56:22.745Z,11.71
2022-10-11T04:59:02.955Z,11.60
2022-10-11T05:01:39.233Z,11.62
2022-10-11T05:04:18.951Z,11.64
2022-10-11T05:06:59.799Z,11.67
2022-10-11T05:09:40.215Z,11.86
2022-10-11T05:12:20.268Z,12.01
2022-10-11T05:14:59.563Z,11.92
2022-10-11T05:17:38.248Z,12.04
2022-10-11T05:20:17.949Z,12.16
2022-10-11T05:22:56.219Z,12.22
2022-10-11T05:25:36.627Z,12.51
2022-10-11T05:28:15.625Z,12.57
2022-10-11T05:30:57.581Z,12.51
2022-10-11T05:33:35.893Z,12.82
2022-10-11T05:36:15.278Z,12.83
2022-10-11T05:38:54.814Z,12.82
2022-10-11T05:41:32.739Z,12.74
2022-10-11T05:44:11.513Z,12.87
2022-10-11T05:47:34.052Z,12.80
2022-10-11T05:50:13.080Z,12.63
2022-10-11T05:52:51.625Z,12.77
2022-10-11T05:55:29.710Z,12.69
2022-10-11T05:58:18.733Z,12.97
2022-10-11T06:00:57.768Z,12.94
2022-10-11T06:03:35.502Z,12.91
2022-10-11T06:06:13.964Z,13.00
2022-10-11T06:08:53.267Z,13.20
2022-10-11T06:11:31.761Z,13.43
2022-10-11T06:14:26.055Z,13.50
2022-10-11T06:17:14.162Z,13.34
2022-10-11T06:20:07.633Z,13.42
2022-10-11T06:22:46.158Z,13.41
2022-10-11T06:25:24.677Z,13.55
2022-10-11T06:28:02.868Z,13.55
2022-10-11T06:30:56.770Z,13.86
2022-10-11T06:33:53.667Z,13.93
2022-10-11T06:36:50.286Z,14.61
2022-10-11T06:39:52.232Z,14.70
2022-10-11T06:42:49.741Z,15.43
2022-10-11T06:45:43.184Z,15.82
2022-10-11T06:48:47.631Z,15.86
2022-10-11T06:51:45.722Z,16.01
2022-10-11T06:54:45.054Z,15.95
2022-10-11T06:57:23.832Z,15.97
2022-10-11T07:00:20.718Z,16.27
2022-10-11T07:03:00.343Z,16.61
2022-10-11T07:05:39.440Z,16.84
2022-10-11T07:08:37.052Z,16.68
2022-10-11T07:11:18.354Z,16.81
2022-10-11T07:14:11.976Z,17.20
2022-10-11T07:16:50.450Z,17.03
2022-10-11T07:19:28.788Z,17.09
2022-10-11T07:22:36.047Z,17.70
2022-10-11T07:25:35.811Z,18.01
2022-10-11T07:28:35.215Z,18.47
2022-10-11T07:31:19.913Z,18.47
2022-10-11T07:33:58.073Z,18.76
2022-10-11T07:36:54.965Z,18.31
2022-10-11T07:39:51.706Z,18.57
2022-10-11T07:42:44.593Z,19.17
2022-10-11T07:45:22.226Z,20.03
2022-10-11T07:48:00.314Z,20.85
2022-10-11T07:50:38.543Z,20.89
2022-10-11T07:53:16.839Z,20.97
2022-10-11T07:56:12.619Z,21.64
2022-10-11T07:59:03.941Z,23.28
2022-10-11T08:01:56.899Z,22.33
2022-10-11T08:04:53.871Z,23.65
2022-10-11T08:07:55.790Z,25.42
2022-10-11T08:10:38.776Z,23.20
2022-10-11T08:13:17.524Z,24.28
2022-10-11T08:15:57.405Z,23.49
2022-10-11T08:18:56.969Z,23.78
2022-10-11T08:22:06.576Z,25.81
2022-10-11T08:25:01.473Z,23.68
2022-10-11T08:27:39.346Z,24.07
2022-10-11T08:30:37.161Z,26.15
2022-10-11T08:33:39.809Z,34.01
2022-10-11T08:36:15.957Z,37.71
2022-10-11T08:38:51.692Z,38.81
2022-10-11T08:42:12.227Z,37.59
2022-10-11T08:45:10.650Z,35.21
2022-10-11T08:48:19.907Z,34.39
2022-10-11T08:51:02.774Z,33.30
2022-10-11T08:53:45.356Z,37.45
2022-10-11T08:56:15.106Z,40.40
2022-10-11T08:58:46.773Z,39.76
2022-10-11T09:01:20.674Z,39.09
2022-10-11T09:03:48.877Z,40.87
2022-10-11T09:06:16.290Z,41.93
2022-10-11T09:09:20.682Z,40.95
2022-10-11T09:11:57.285Z,39.89
2022-10-11T09:14:43.019Z,39.98
2022-10-11T09:17:25.765Z,39.72
2022-10-11T09:20:31.077Z,39.62
2022-10-11T09:23:26.188Z,39.55
2022-10-11T09:26:06.278Z,39.13
2022-10-11T09:28:34.064Z,38.73
2022-10-11T09:31:01.615Z,37.89
2022-10-11T09:33:36.862Z,34.13
2022-10-11T09:36:14.319Z,33.39
2022-10-11T09:38:53.755Z,34.85
2022-10-11T09:41:46.696Z,34.25
2022-10-11T09:44:24.342Z,36.04
2022-10-11T09:46:54.196Z,34.68
2022-10-11T09:49:28.980Z,34.27
2022-10-11T09:51:59.064Z,33.84
2022-10-11T09:54:41.439Z,29.68
2022-10-11T09:57:33.959Z,27.38
2022-10-11T10:00:18.689Z,26.94
2022-10-11T10:02:57.282Z,25.55
2022-10-11T10:05:31.300Z,26.52
2022-10-11T10:08:10.760Z,25.98
2022-10-11T10:10:42.713Z,25.93
2022-10-11T10:13:22.005Z,25.91
2022-10-11T10:15:53.716Z,24.74
2022-10-11T10:18:24.759Z,25.75
2022-10-11T10:20:55.649Z,26.18
2022-10-11T10:23:27.654Z,26.00
2022-10-11T10:26:20.397Z,26.37
2022-10-11T10:29:09.010Z,26.20
2022-10-11T10:31:55.255Z,26.46
2022-10-11T10:34:31.203Z,25.28
2022-10-11T10:37:28.140Z,25.24
2022-10-11T10:40:09.250Z,24.05
2022-10-11T10:42:37.559Z,24.70
2022-10-11T10:45:12.278Z,25.18
2022-10-11T10:47:50.027Z,24.70
2022-10-11T10:50:27.410Z,24.52
2022-10-11T10:53:06.642Z,25.15
2022-10-11T10:55:46.778Z,24.72
2022-10-11T10:58:35.681Z,24.96
2022-10-11T11:01:13.425Z,24.88
2022-10-11T11:04:02.037Z,24.35
2022-10-11T11:06:43.372Z,24.22
2022-10-11T11:09:27.680Z,24.43
2022-10-11T11:11:57.901Z,24.70
2022-10-11T11:14:41.524Z,25.45
2022-10-11T11:17:24.102Z,25.14
2022-10-11T11:20:25.295Z,25.54
2022-10-11T11:23:02.592Z,26.74
2022-10-11T11:25:51.715Z,27.92
2022-10-11T11:28:37.906Z,27.97
2022-10-11T11:31:19.591Z,28.19
2022-10-11T11:34:10.118Z,30.48
2022-10-11T11:36:43.488Z,31.50
2022-10-11T11:39:19.239Z,31.47
2022-10-11T11:41:59.992Z,29.52
2022-10-11T11:44:38.419Z,27.94
2022-10-11T11:47:25.791Z,26.89
2022-10-11T11:50:05.824Z,26.40
2022-10-11T11:52:38.980Z,25.77
2022-10-11T11:55:27.974Z,25.15
2022-10-11T11:58:32.919Z,24.34
2022-10-11T12:01:31.073Z,25.32
2022-10-11T12:04:12.676Z,26.98
2022-10-11T12:06:52.387Z,31.66
2022-10-11T12:09:23.448Z,32.87
2022-10-11T12:12:00.232Z,32.38
2022-10-11T12:14:35.856Z,33.84
2022-10-11T12:17:06.044Z,34.47
2022-10-11T12:19:34.028Z,34.89
2022-10-11T12:22:26.361Z,34.48
2022-10-11T12:25:09.259Z,35.78
2022-10-11T12:27:52.011Z,34.19
2022-10-11T12:30:44.487Z,35.01
2022-10-11T12:33:42.840Z,33.68
2022-10-11T12:36:32.347Z,34.74
2022-10-11T12:39:18.386Z,32.74
2022-10-11T12:41:48.909Z,35.53
2022-10-11T12:44:20.031Z,35.30
2022-10-11T12:46:50.094Z,34.83
2022-10-11T12:49:48.464Z,35.60
2022-10-11T12:52:28.450Z,37.15
2022-10-11T12:55:31.340Z,36.53
2022-10-11T12:58:23.180Z,34.76
2022-10-11T13:00:56.335Z,35.90
2022-10-11T13:03:32.765Z,35.52
2022-10-11T13:06:15.702Z,35.48
2022-10-11T13:08:47.462Z,36.08
2022-10-11T13:11:21.164Z,31.06
2022-10-11T13:13:54.179Z,31.18
2022-10-11T13:16:26.556Z,27.67
2022-10-11T13:18:59.718Z,26.76
2022-10-11T13:21:39.372Z,25.49
2022-10-11T13:24:18.693Z,25.42
2022-10-11T13:26:49.236Z,25.35
2022-10-11T13:29:27.650Z,26.19
2022-10-11T13:31:55.992Z,26.24
2022-10-11T13:34:24.424Z,27.92
2022-10-11T13:36:59.286Z,29.77
2022-10-11T13:39:34.427Z,29.36
2022-10-11T13:42:07.123Z,28.96
2022-10-11T13:44:37.535Z,29.80
2022-10-11T13:47:05.461Z,30.58
2022-10-11T13:49:38.448Z,31.44
2022-10-11T13:52:21.729Z,29.40
2022-10-11T13:55:00.796Z,28.22
2022-10-11T13:57:39.015Z,25.80
2022-10-11T14:00:15.663Z,24.70
2022-10-11T14:02:58.100Z,24.16
2022-10-11T14:05:30.597Z,23.70
2022-10-11T14:08:00.887Z,23.69
2022-10-11T14:10:28.867Z,22.87
2022-10-11T14:13:03.832Z,22.81
2022-10-11T14:15:34.587Z,22.22
2022-10-11T14:18:22.732Z,22.17
2022-10-11T14:20:50.279Z,22.09
2022-10-11T14:23:17.934Z,21.88
2022-10-11T14:25:46.345Z,21.72
2022-10-11T14:28:13.967Z,21.42
2022-10-11T14:30:42.979Z,21.29
2022-10-11T14:33:11.492Z,21.16
2022-10-11T14:35:41.568Z,21.08
2022-10-11T14:38:11.753Z,21.11
2022-10-11T14:40:39.264Z,21.15
2022-10-11T14:43:06.830Z,21.26
2022-10-11T14:45:35.368Z,21.18
2022-10-11T14:48:02.950Z,21.28
2022-10-11T14:50:30.431Z,21.32
2022-10-11T14:52:58.215Z,21.36
2022-10-11T14:55:27.240Z,21.36
2022-10-11T14:57:56.311Z,21.33
2022-10-11T15:00:29.656Z,21.25
2022-10-11T15:02:57.938Z,21.00
2022-10-11T15:05:33.651Z,21.09
2022-10-11T15:08:04.416Z,20.96
2022-10-11T15:10:40.712Z,20.92
2022-10-11T15:13:09.017Z,20.96
2022-10-11T15:15:40.866Z,20.84
2022-10-11T15:18:13.348Z,20.52
2022-10-11T15:20:44.111Z,20.55
2022-10-11T15:23:12.217Z,20.45
2022-10-11T15:25:42.042Z,20.28
2022-10-11T15:28:23.264Z,20.18
2022-10-11T15:30:51.156Z,20.05
2022-10-11T15:33:18.855Z,19.67
2022-10-11T15:35:46.483Z,19.70
2022-10-11T15:38:21.802Z,19.55
2022-10-11T15:40:50.466Z,19.46
2022-10-11T15:43:23.467Z,19.28
2022-10-11T15:45:52.296Z,18.88
2022-10-11T15:48:21.902Z,18.59
2022-10-11T15:50:50.320Z,18.56
2022-10-11T15:53:23.308Z,18.23
2022-10-11T15:55:53.141Z,18.08
2022-10-11T15:58:26.424Z,17.90
2022-10-11T16:00:57.026Z,17.80
2022-10-11T16:03:27.387Z,17.64
2022-10-11T16:05:55.546Z,17.60
2022-10-11T16:08:23.445Z,17.53
2022-10-11T16:10:51.215Z,17.37
2022-10-11T16:13:18.927Z,17.25
2022-10-11T16:15:47.208Z,17.16
2022-10-11T16:18:17.260Z,17.11
2022-10-11T16:20:47.132Z,17.18
2022-10-11T16:23:15.540Z,17.18
2022-10-11T16:25:43.375Z,16.90
2022-10-11T16:28:11.501Z,16.75
2022-10-11T16:30:43.174Z,16.67
2022-10-11T16:33:11.012Z,16.67
2022-10-11T16:35:42.516Z,16.68
2022-10-11T16:38:14.985Z,16.62
2022-10-11T16:40:43.475Z,16.51
2022-10-11T16:43:10.998Z,16.82
2022-10-11T16:45:38.528Z,16.83
2022-10-11T16:48:06.045Z,16.76
2022-10-11T16:50:39.090Z,16.67
2022-10-11T16:53:08.116Z,16.64
2022-10-11T16:55:35.694Z,16.56
2022-10-11T16:58:03.201Z,16.51
2022-10-11T17:00:33.439Z,16.43
2022-10-11T17:03:01.512Z,16.38
2022-10-11T17:05:28.985Z,16.37
2022-10-11T17:07:56.757Z,16.44
2022-10-11T17:10:39.399Z,16.30
2022-10-11T17:13:07.367Z,16.39
2022-10-11T17:15:36.110Z,16.49
2022-10-11T17:18:03.846Z,16.47
2022-10-11T17:20:31.444Z,16.40
2022-10-11T17:22:58.900Z,16.54
2022-10-11T17:25:26.399Z,16.53
2022-10-11T17:27:56.321Z,16.34
2022-10-11T17:30:24.902Z,16.25
2022-10-11T17:32:52.552Z,16.13
2022-10-11T17:35:20.202Z,16.25
2022-10-11T17:37:49.865Z,16.34
2022-10-11T17:40:17.724Z,16.35
2022-10-11T17:42:45.264Z,16.41
2022-10-11T17:45:14.606Z,16.41
2022-10-11T17:47:42.090Z,16.53
2022-10-11T17:50:09.787Z,16.45
2022-10-11T17:52:37.367Z,16.58
2022-10-11T17:55:05.374Z,16.37
2022-10-11T17:57:32.904Z,16.56
2022-10-11T18:00:02.037Z,16.55
2022-10-11T18:02:32.441Z,16.12
2022-10-11T18:05:00.051Z,16.02
2022-10-11T18:07:27.634Z,15.87
2022-10-11T18:09:55.530Z,15.74
2022-10-11T18:12:23.671Z,15.46
2022-10-11T18:14:51.176Z,15.18
2022-10-11T18:17:19.089Z,15.06
2022-10-11T18:19:47.660Z,15.27
2022-10-11T18:22:15.303Z,14.76
2022-10-11T18:24:42.862Z,14.44
2022-10-11T18:27:10.299Z,14.51
2022-10-11T18:29:38.498Z,14.46
2022-10-11T18:32:06.023Z,14.28
2022-10-11T18:34:33.551Z,13.92
2022-10-11T18:37:01.036Z,13.92
2022-10-11T18:39:28.823Z,13.89
2022-10-11T18:41:56.641Z,13.64
2022-10-11T18:44:24.151Z,13.52
2022-10-11T18:46:51.849Z,13.53
2022-10-11T18:49:19.728Z,13.59
2022-10-11T18:51:47.987Z,13.43
2022-10-11T18:54:20.147Z,13.38
2022-10-11T18:56:49.104Z,13.29
2022-10-11T18:59:16.974Z,13.41
2022-10-11T19:01:44.780Z,13.48
2022-10-11T19:04:16.128Z,13.36
2022-10-11T19:06:49.254Z,13.37
2022-10-11T19:09:21.845Z,13.36
2022-10-11T19:11:50.770Z,13.46
2022-10-11T19:14:21.071Z,13.48
2022-10-11T19:16:51.473Z,13.54
2022-10-11T19:19:23.486Z,13.03
2022-10-11T19:21:51.529Z,13.23
2022-10-11T19:24:21.461Z,13.11
2022-10-11T19:26:52.757Z,13.04
2022-10-11T19:29:24.696Z,13.00
2022-10-11T19:31:54.427Z,12.98
2022-10-11T19:34:23.227Z,12.96
2022-10-11T19:36:52.753Z,12.59
2022-10-11T19:39:22.043Z,12.74
2022-10-11T19:41:49.559Z,12.71
2022-10-11T19:44:17.561Z,12.83
2022-10-11T19:46:51.628Z,12.60
2022-10-11T19:49:25.783Z,12.53
2022-10-11T19:51:53.821Z,12.72
2022-10-11T19:54:21.379Z,12.78
2022-10-11T19:56:49.022Z,12.56
2022-10-11T19:59:16.947Z,12.56
2022-10-11T20:01:49.398Z,12.55
2022-10-11T20:04:39.956Z,12.71
2022-10-11T20:07:06.227Z,12.74
2022-10-11T20:09:33.787Z,12.66
2022-10-11T20:12:01.234Z,12.69
2022-10-11T20:14:28.757Z,12.60
2022-10-11T20:16:56.523Z,12.50
2022-10-11T20:19:30.607Z,12.48
2022-10-11T20:22:00.561Z,12.19
2022-10-11T20:24:32.669Z,12.34
2022-10-11T20:27:05.376Z,12.39
2022-10-11T20:29:32.837Z,12.33
2022-10-11T20:32:00.427Z,12.06
2022-10-11T20:34:28.226Z,11.97
2022-10-11T20:36:55.824Z,11.97
2022-10-11T20:39:23.822Z,12.07
2022-10-11T20:41:51.390Z,11.82
2022-10-11T20:44:18.950Z,11.80
2022-10-11T20:46:46.494Z,11.69
2022-10-11T20:49:14.000Z,11.65
2022-10-11T20:51:42.630Z,11.55
2022-10-11T20:54:10.859Z,11.53
2022-10-11T20:56:38.921Z,11.56
2022-10-11T20:59:07.247Z,11.30
2022-10-11T21:01:39.874Z,11.16
2022-10-11T21:04:14.280Z,11.27
2022-10-11T21:06:42.042Z,11.27
2022-10-11T21:09:11.347Z,11.30
2022-10-11T21:11:41.648Z,11.39
2022-10-11T21:14:09.151Z,11.45
2022-10-11T21:16:36.742Z,11.53
2022-10-11T21:19:04.304Z,11.54
2022-10-11T21:21:31.919Z,11.43
2022-10-11T21:24:01.142Z,11.53
2022-10-11T21:26:30.513Z,11.52
2022-10-11T21:29:01.044Z,11.40
2022-10-11T21:31:33.809Z,11.69
2022-10-11T21:34:02.736Z,11.40
2022-10-11T21:36:30.387Z,11.47
2022-10-11T21:38:57.843Z,11.34
2022-10-11T21:41:26.617Z,11.47
2022-10-11T21:43:54.099Z,11.41
2022-10-11T21:46:32.502Z,11.45
2022-10-11T21:49:09.490Z,11.35
2022-10-11T21:51:36.955Z,11.18
2022-10-11T21:54:05.289Z,11.11
2022-10-11T21:56:32.862Z,11.10
2022-10-11T21:59:00.384Z,11.02
2022-10-11T22:01:28.093Z,10.94
2022-10-11T22:03:55.660Z,10.96
2022-10-11T22:06:23.290Z,10.99
2022-10-11T22:08:52.717Z,11.04
2022-10-11T22:11:20.227Z,10.92
2022-10-11T22:13:47.799Z,10.79
2022-10-11T22:16:15.844Z,10.75
2022-10-11T22:18:43.601Z,11.01
2022-10-11T22:21:15.418Z,11.04
2022-10-11T22:23:45.005Z,10.85
2022-10-11T22:26:25.043Z,10.48
2022-10-11T22:28:53.523Z,10.13
2022-10-11T22:31:22.554Z,10.35
2022-10-11T22:33:54.919Z,10.35
2022-10-11T22:36:24.305Z,10.47
2022-10-11T22:38:52.718Z,10.48
2022-10-11T22:41:20.310Z,10.41
2022-10-11T22:43:47.908Z,10.61
2022-10-11T22:46:16.648Z,10.35
2022-10-11T22:48:44.131Z,10.42
2022-10-11T22:51:11.642Z,10.39
2022-10-11T22:53:39.101Z,10.43
2022-10-11T22:56:06.906Z,10.46
2022-10-11T22:58:34.527Z,10.36
2022-10-11T23:01:15.160Z,10.34
2022-10-11T23:03:43.355Z,10.45
2022-10-11T23:06:10.898Z,10.44
2022-10-11T23:08:38.382Z,10.44
2022-10-11T23:11:07.642Z,10.44
2022-10-11T23:13:35.523Z,10.34
2022-10-11T23:16:10.978Z,10.41
2022-10-11T23:18:39.196Z,10.32
2022-10-11T23:21:07.141Z,10.13
2022-10-11T23:23:35.148Z,10.24
2022-10-11T23:26:12.061Z,10.31
2022-10-11T23:28:40.458Z,10.24
2022-10-11T23:31:13.124Z,10.37
2022-10-11T23:33:41.046Z,10.44
2022-10-11T23:36:26.784Z,10.41
2022-10-11T23:38:58.620Z,10.45
2022-10-11T23:41:28.890Z,10.54
2022-10-11T23:43:58.026Z,10.68
2022-10-11T23:46:25.590Z,10.75
2022-10-11T23:48:53.207Z,10.64
2022-10-11T23:51:21.220Z,10.76
2022-10-11T23:53:48.744Z,10.99
2022-10-11T23:56:16.201Z,11.07
2022-10-11T23:58:43.646Z,11.10
